Arklow Wind — EIKZ — position and weather

sailwx.info

Track history (hours):
 
Tides and Currents Weather Stations Pressure Air Temp Water Temp Dewpoint Dewpoint Depression Visibility Wind Speed Wind Dir Waves Ship Positions

Arklow Wind

Last reported at 2014-Oct-24 19:07 UTC. Time now 2014-Oct-24 23:55 UTC.
Position N 37°40' W 009°59'.

Length 136 m; draft 7.6 m.

Type: Ship (hazmat cat A). MMSI: 250506000.

Date/timePositionNaut miles runAvg speedWind from/ knotsBaromVisibWave heightAir tempDewpointWater temp
2014-Oct-24 19:07N 37°40' W 009°59'712.5
2014-Oct-24 18:33N 37°47' W 010°01'2512.3
2014-Oct-24 16:31N 38°11' W 010°08'  
2014-Oct-21 19:24N 50°07' W 003°34'910.2
2014-Oct-21 18:34N 50°12' W 003°23'10 9.2
2014-Oct-21 17:29N 50°16' W 003°09'9 9.1
2014-Oct-21 16:31N 50°19' W 002°56'8 8.7
2014-Oct-21 15:33N 50°20' W 002°43'20 9.4
2014-Oct-21 13:23N 50°21' W 002°11'2910.1
2014-Oct-21 10:31N 50°22' W 001°26'8 8.1
2014-Oct-21 09:32N 50°23' W 001°14'6 6.1
2014-Oct-21 08:32N 50°24' W 001°04'92 8.2
2014-Oct-20 21:19N 50°56' E 001°12'7 9.5
2014-Oct-20 20:33N 51°00' E 001°21'1010.3
2014-Oct-20 19:33N 51°07' E 001°33'1211.9
2014-Oct-20 18:34N 51°15' E 001°46'1312.8
2014-Oct-20 17:33N 51°26' E 001°59'4911.4
2014-Oct-20 13:17N 52°03' E 002°49'117 9.6
2014-Oct-20 01:05N 53°33' E 004°55'4 8.1
2014-Oct-20 00:33N 53°33' E 005°02'9 9.4
2014-Oct-19 23:33N 53°37' E 005°17'1010.2
2014-Oct-19 22:33N 53°40' E 005°33'1110.6
2014-Oct-19 21:33N 53°43' E 005°50'6210.4
2014-Oct-19 15:33N 54°00' E 007°31'1110.7
2014-Oct-19 14:33N 54°01' E 007°49'1111.4
2014-Oct-19 13:33N 54°01' E 008°09'1413.7
2014-Oct-19 12:33N 53°58' E 008°32'1413.9
2014-Oct-19 11:34N 53°50' E 008°51'1111.0
2014-Oct-19 10:33N 53°54' E 009°09'1 1.1
2014-Oct-19 09:33N 53°54' E 009°10'8 7.6
2014-Oct-19 08:33N 54°01' E 009°18'11 5.1
2014-Oct-19 06:30N 54°10' E 009°26'5 5.5
2014-Oct-19 05:33N 54°12' E 009°34'6 5.7
2014-Oct-19 04:29N 54°17' E 009°39'3 3.7
2014-Oct-19 03:33N 54°20' E 009°43'4 4.0
2014-Oct-19 02:33N 54°22' E 009°49'6 5.5
2014-Oct-19 01:33N 54°21' E 009°58'6 5.8
2014-Oct-19 00:33N 54°22' E 010°08'1 0.9
2014-Oct-18 23:33N 54°22' E 010°10'2 1.8
2014-Oct-18 22:33N 54°23' E 010°12'1110.6
2014-Oct-18 21:33N 54°32' E 010°23'1111.4
2014-Oct-18 20:33N 54°35' E 010°41'4012.2
2014-Oct-18 17:14N 54°27' E 011°49'912.5
2014-Oct-18 16:32N 54°27' E 012°04'9611.6
2014-Oct-18 08:15N 55°19' E 014°24'2511.9
2014-Oct-18 06:11N 55°34' E 014°58'1012.1
2014-Oct-18 05:23N 55°39' E 015°13'1212.3
2014-Oct-18 04:26N 55°44' E 015°31'1312.4
2014-Oct-18 03:24N 55°50' E 015°51'1112.4
2014-Oct-18 02:33N 55°56' E 016°07'1312.7
2014-Oct-18 01:33N 56°02' E 016°27'  
Track history (hours):
 
Tides and Currents Weather Stations Pressure Air Temp Water Temp Dewpoint Dewpoint Depression Visibility Wind Speed Wind Dir Waves Ship Positions

Arklow Wind

Last reported at 2014-Oct-24 19:07 UTC. Time now 2014-Oct-24 23:55 UTC.
Position N 37°40' W 009°59'.

Length 136 m; draft 7.6 m.

Type: Ship (hazmat cat A). MMSI: 250506000.

Date/timePositionNaut miles runAvg speedWind from/ knotsBaromVisibWave heightAir tempDewpointWater temp
2014-Oct-24 19:07N 37°40' W 009°59'712.5
2014-Oct-24 18:33N 37°47' W 010°01'2512.3
2014-Oct-24 16:31N 38°11' W 010°08'  
2014-Oct-21 19:24N 50°07' W 003°34'910.2
2014-Oct-21 18:34N 50°12' W 003°23'10 9.2
2014-Oct-21 17:29N 50°16' W 003°09'9 9.1
2014-Oct-21 16:31N 50°19' W 002°56'8 8.7
2014-Oct-21 15:33N 50°20' W 002°43'20 9.4
2014-Oct-21 13:23N 50°21' W 002°11'2910.1
2014-Oct-21 10:31N 50°22' W 001°26'8 8.1
2014-Oct-21 09:32N 50°23' W 001°14'6 6.1
2014-Oct-21 08:32N 50°24' W 001°04'92 8.2
2014-Oct-20 21:19N 50°56' E 001°12'7 9.5
2014-Oct-20 20:33N 51°00' E 001°21'1010.3
2014-Oct-20 19:33N 51°07' E 001°33'1211.9
2014-Oct-20 18:34N 51°15' E 001°46'1312.8
2014-Oct-20 17:33N 51°26' E 001°59'4911.4
2014-Oct-20 13:17N 52°03' E 002°49'117 9.6
2014-Oct-20 01:05N 53°33' E 004°55'4 8.1
2014-Oct-20 00:33N 53°33' E 005°02'9 9.4
2014-Oct-19 23:33N 53°37' E 005°17'1010.2
2014-Oct-19 22:33N 53°40' E 005°33'1110.6
2014-Oct-19 21:33N 53°43' E 005°50'6210.4
2014-Oct-19 15:33N 54°00' E 007°31'1110.7
2014-Oct-19 14:33N 54°01' E 007°49'1111.4
2014-Oct-19 13:33N 54°01' E 008°09'1413.7
2014-Oct-19 12:33N 53°58' E 008°32'1413.9
2014-Oct-19 11:34N 53°50' E 008°51'1111.0
2014-Oct-19 10:33N 53°54' E 009°09'1 1.1
2014-Oct-19 09:33N 53°54' E 009°10'8 7.6
2014-Oct-19 08:33N 54°01' E 009°18'11 5.1
2014-Oct-19 06:30N 54°10' E 009°26'5 5.5
2014-Oct-19 05:33N 54°12' E 009°34'6 5.7
2014-Oct-19 04:29N 54°17' E 009°39'3 3.7
2014-Oct-19 03:33N 54°20' E 009°43'4 4.0
2014-Oct-19 02:33N 54°22' E 009°49'6 5.5
2014-Oct-19 01:33N 54°21' E 009°58'6 5.8
2014-Oct-19 00:33N 54°22' E 010°08'1 0.9
2014-Oct-18 23:33N 54°22' E 010°10'2 1.8
2014-Oct-18 22:33N 54°23' E 010°12'1110.6
2014-Oct-18 21:33N 54°32' E 010°23'1111.4
2014-Oct-18 20:33N 54°35' E 010°41'4012.2
2014-Oct-18 17:14N 54°27' E 011°49'912.5
2014-Oct-18 16:32N 54°27' E 012°04'9611.6
2014-Oct-18 08:15N 55°19' E 014°24'2511.9
2014-Oct-18 06:11N 55°34' E 014°58'1012.1
2014-Oct-18 05:23N 55°39' E 015°13'1212.3
2014-Oct-18 04:26N 55°44' E 015°31'1312.4
2014-Oct-18 03:24N 55°50' E 015°51'1112.4
2014-Oct-18 02:33N 55°56' E 016°07'1312.7
2014-Oct-18 01:33N 56°02' E 016°27'  

Dump ship's entire track history